Time;durP1;ratioP1;P1;durP2;ratioP2;P2;SDS_P1;SDS_P2;PMS_P1;PMS_P2;Temp;Humidity;BMP_temperature;BMP_pressure;BME280_temperature;BME280_humidity;BME280_pressure;Samples;Min_cycle;Max_cycle;Signal;HPM_P1;HPM_P2
2021/07/21 00:00:01;;;;;;;3.72;2.08;;;;;;;;;;5072723;28;20052;-82
2021/07/21 00:02:28;;;;;;;3.80;2.10;;;;;;;;;;5073285;28;20055;-82
2021/07/21 00:04:54;;;;;;;8.90;1.90;;;;;;;;;;5073062;28;20067;-82
2021/07/21 00:07:21;;;;;;;6.80;2.42;;;;;;;;;;5072784;28;20044;-82
2021/07/21 00:09:47;;;;;;;6.32;2.92;;;;;;;;;;5072314;28;20515;-82
2021/07/21 00:14:59;;;;;;;5.00;2.92;;;;;;;;;;5071089;28;20056;-82
2021/07/21 00:17:31;;;;;;;5.50;1.92;;;;;;;;;;5069045;28;20459;-82
2021/07/21 00:20:07;;;;;;;5.13;2.30;;;;;;;;;;5072141;28;20055;-82
2021/07/21 00:22:33;;;;;;;;;;;;;;;;;;5070537;28;20053;-82
2021/07/21 00:25:00;;;;;;;4.05;2.10;;;;;;;;;;5072035;28;19927;-82
2021/07/21 00:27:26;;;;;;;4.50;2.08;;;;;;;;;;5072165;28;20048;-82
2021/07/21 00:29:53;;;;;;;8.52;3.45;;;;;;;;;;5072084;28;20041;-82
2021/07/21 00:32:21;;;;;;;5.57;2.90;;;;;;;;;;5069331;28;20056;-82
2021/07/21 00:34:47;;;;;;;3.47;1.98;;;;;;;;;;5071413;28;20496;-82
2021/07/21 00:37:14;;;;;;;4.10;2.20;;;;;;;;;;5072062;28;20040;-82
2021/07/21 00:39:40;;;;;;;4.05;1.70;;;;;;;;;;5071739;28;20087;-82
2021/07/21 00:42:07;;;;;;;4.97;3.33;;;;;;;;;;5071762;28;20041;-82
2021/07/21 00:44:33;;;;;;;5.53;2.08;;;;;;;;;;5071816;28;20109;-83
2021/07/21 00:47:00;;;;;;;2.95;1.98;;;;;;;;;;5071584;28;20040;-82
2021/07/21 00:49:28;;;;;;;4.05;2.47;;;;;;;;;;5071570;28;20044;-82
2021/07/21 00:51:55;;;;;;;5.53;2.33;;;;;;;;;;5071533;28;20048;-82
2021/07/21 00:54:21;;;;;;;2.92;2.28;;;;;;;;;;5071982;28;20056;-82
2021/07/21 00:56:48;;;;;;;3.58;1.92;;;;;;;;;;5071579;28;20044;-82
2021/07/21 00:59:14;;;;;;;2.80;2.47;;;;;;;;;;5071134;28;20052;-82
2021/07/21 01:01:41;;;;;;;4.13;2.45;;;;;;;;;;5071191;28;20101;-82
2021/07/21 01:04:08;;;;;;;2.92;1.92;;;;;;;;;;5071293;28;20055;-82
2021/07/21 01:06:37;;;;;;;4.47;2.33;;;;;;;;;;5071308;28;20040;-82
2021/07/21 01:09:06;;;;;;;4.45;2.75;;;;;;;;;;5068828;28;20492;-82
2021/07/21 01:11:35;;;;;;;4.10;2.38;;;;;;;;;;5071229;28;20049;-82
2021/07/21 01:14:04;;;;;;;3.95;2.42;;;;;;;;;;5070980;28;20044;-82
2021/07/21 01:16:33;;;;;;;3.83;2.65;;;;;;;;;;5071008;28;20504;-82
2021/07/21 01:19:04;;;;;;;3.35;2.15;;;;;;;;;;5071605;28;20089;-82
2021/07/21 01:21:45;;;;;;;2.97;2.00;;;;;;;;;;5071564;28;20504;-82
2021/07/21 01:24:20;;;;;;;4.03;2.25;;;;;;;;;;5071638;28;20082;-82
2021/07/21 01:26:49;;;;;;;6.13;3.47;;;;;;;;;;5071377;28;20086;-82
2021/07/21 01:29:19;;;;;;;2.55;1.95;;;;;;;;;;5071683;28;20461;-82
2021/07/21 02:53:26;;;;;;;3.50;2.25;;;;;;;;;;5055674;28;20177;-80
2021/07/21 02:55:53;;;;;;;4.78;2.53;;;;;;;;;;5070435;28;20493;-81
2021/07/21 02:58:23;;;;;;;4.57;2.97;;;;;;;;;;5070283;28;20127;-81
2021/07/21 03:00:50;;;;;;;4.40;3.13;;;;;;;;;;5070635;28;20093;-80
2021/07/21 03:03:17;;;;;;;4.57;2.65;;;;;;;;;;5070487;28;20049;-81
2021/07/21 03:05:45;;;;;;;8.50;2.97;;;;;;;;;;5070488;28;20048;-81
2021/07/21 03:08:12;;;;;;;6.25;4.90;;;;;;;;;;5070381;28;20048;-81
2021/07/21 03:10:41;;;;;;;3.42;2.67;;;;;;;;;;5070266;28;20052;-81
2021/07/21 03:13:10;;;;;;;4.22;2.58;;;;;;;;;;5068531;28;20102;-81
2021/07/21 03:15:39;;;;;;;6.32;3.13;;;;;;;;;;5070174;28;20048;-81
2021/07/21 03:18:08;;;;;;;4.53;2.75;;;;;;;;;;5070347;28;20412;-81
2021/07/21 03:20:35;;;;;;;3.72;2.58;;;;;;;;;;5070240;28;20060;-81
2021/07/21 03:23:02;;;;;;;6.38;3.45;;;;;;;;;;5073026;28;20045;-81
2021/07/21 03:25:29;;;;;;;3.88;2.50;;;;;;;;;;5073652;28;20052;-81
2021/07/21 03:27:57;;;;;;;3.35;2.10;;;;;;;;;;5074032;28;20996;-81
2021/07/21 03:30:25;;;;;;;3.00;2.25;;;;;;;;;;5073691;28;20048;-80
2021/07/21 03:32:52;;;;;;;5.00;2.33;;;;;;;;;;5074110;28;20048;-81
2021/07/21 03:35:19;;;;;;;6.40;3.17;;;;;;;;;;5073554;28;20049;-81
2021/07/21 03:37:46;;;;;;;3.38;2.05;;;;;;;;;;5073631;28;20044;-80
2021/07/21 03:40:14;;;;;;;4.05;2.42;;;;;;;;;;5073458;28;20044;-81
2021/07/21 03:42:41;;;;;;;5.30;2.63;;;;;;;;;;5073723;28;20385;-82
2021/07/21 03:45:10;;;;;;;7.13;4.15;;;;;;;;;;5073574;28;20074;-81
2021/07/21 03:47:37;;;;;;;5.65;2.55;;;;;;;;;;5073363;28;20044;-82
2021/07/21 03:50:04;;;;;;;5.90;2.42;;;;;;;;;;5073347;28;20068;-81
2021/07/21 03:52:31;;;;;;;5.43;3.78;;;;;;;;;;5073061;28;20048;-82
2021/07/21 03:54:58;;;;;;;6.75;3.90;;;;;;;;;;5073637;28;20048;-81
2021/07/21 03:57:25;;;;;;;9.00;2.70;;;;;;;;;;5073717;28;20048;-81
2021/07/21 03:59:52;;;;;;;9.45;3.97;;;;;;;;;;5073406;28;20044;-81
2021/07/21 04:02:21;;;;;;;7.65;3.33;;;;;;;;;;5073214;28;20044;-81
2021/07/21 04:04:48;;;;;;;8.80;2.80;;;;;;;;;;5073115;28;20512;-82
2021/07/21 04:07:16;;;;;;;3.95;3.13;;;;;;;;;;5072913;28;20045;-81
2021/07/21 04:09:43;;;;;;;6.38;3.42;;;;;;;;;;5073306;28;20045;-81
2021/07/21 04:12:10;;;;;;;6.63;4.07;;;;;;;;;;5073151;28;20045;-81
2021/07/21 04:14:37;;;;;;;5.40;3.25;;;;;;;;;;5073049;28;20121;-81
2021/07/21 04:17:05;;;;;;;5.28;2.42;;;;;;;;;;5069892;28;20044;-81
2021/07/21 04:19:33;;;;;;;6.15;2.42;;;;;;;;;;5072910;28;20416;-80
2021/07/21 04:22:00;;;;;;;4.80;3.42;;;;;;;;;;5072640;28;20053;-81
2021/07/21 04:24:27;;;;;;;5.13;2.75;;;;;;;;;;5072755;28;20485;-81
2021/07/21 04:26:54;;;;;;;4.10;2.70;;;;;;;;;;5072600;28;20041;-81
2021/07/21 04:29:22;;;;;;;4.72;3.10;;;;;;;;;;5072814;28;20499;-81
2021/07/21 04:31:49;;;;;;;7.53;5.20;;;;;;;;;;5072623;28;20053;-81
2021/07/21 04:34:16;;;;;;;7.07;3.78;;;;;;;;;;5071809;28;20106;-82
2021/07/21 04:36:46;;;;;;;5.50;3.58;;;;;;;;;;5072702;28;20045;-81
2021/07/21 04:39:14;;;;;;;9.60;3.85;;;;;;;;;;5072337;28;20049;-81
2021/07/21 04:41:40;;;;;;;5.20;2.28;;;;;;;;;;5072485;28;20114;-82
2021/07/21 04:44:07;;;;;;;4.82;2.58;;;;;;;;;;5072371;28;20412;-81
2021/07/21 04:46:34;;;;;;;5.43;3.22;;;;;;;;;;5072283;28;20052;-81
2021/07/21 04:49:01;;;;;;;4.80;2.63;;;;;;;;;;5072221;28;20044;-81
2021/07/21 04:51:29;;;;;;;5.88;3.20;;;;;;;;;;5072413;28;20052;-82
2021/07/21 04:53:59;;;;;;;4.63;2.95;;;;;;;;;;5071852;28;20056;-81
2021/07/21 04:56:25;;;;;;;8.32;3.97;;;;;;;;;;5072020;28;20044;-81
2021/07/21 04:58:52;;;;;;;5.07;2.38;;;;;;;;;;5072102;28;20056;-81
2021/07/21 05:01:18;;;;;;;3.85;2.60;;;;;;;;;;5071847;28;20067;-81
2021/07/21 05:03:45;;;;;;;5.43;3.28;;;;;;;;;;5071916;28;20044;-81
2021/07/21 05:06:11;;;;;;;4.78;3.28;;;;;;;;;;5071910;28;20504;-78
2021/07/21 05:08:38;;;;;;;6.63;3.55;;;;;;;;;;5072089;28;20057;-81
2021/07/21 05:11:06;;;;;;;3.65;2.03;;;;;;;;;;5071766;28;20045;-81
2021/07/21 05:13:37;;;;;;;4.10;2.75;;;;;;;;;;5071874;28;20044;-81
2021/07/21 05:16:04;;;;;;;5.88;2.03;;;;;;;;;;5071590;28;20052;-81
2021/07/21 05:18:31;;;;;;;3.92;2.80;;;;;;;;;;5071850;28;20133;-81
2021/07/21 05:20:57;;;;;;;3.90;2.63;;;;;;;;;;5071673;28;20836;-79
2021/07/21 05:23:24;;;;;;;4.88;3.13;;;;;;;;;;5071484;28;20052;-80
2021/07/21 05:25:50;;;;;;;5.38;2.88;;;;;;;;;;5071945;28;20044;-81
2021/07/21 05:28:18;;;;;;;4.65;2.58;;;;;;;;;;5071607;28;20048;-80
2021/07/21 05:30:44;;;;;;;6.60;3.25;;;;;;;;;;5071365;28;20554;-81
2021/07/21 05:33:12;;;;;;;5.65;3.35;;;;;;;;;;5071619;28;20048;-80
2021/07/21 05:35:38;;;;;;;7.97;3.50;;;;;;;;;;5071298;28;20489;-80
2021/07/21 05:38:05;;;;;;;5.28;2.58;;;;;;;;;;5071388;28;20044;-80
2021/07/21 05:40:31;;;;;;;4.90;2.72;;;;;;;;;;5071240;28;20098;-80
2021/07/21 05:42:58;;;;;;;5.45;2.58;;;;;;;;;;5071100;28;20052;-80
2021/07/21 05:45:26;;;;;;;5.03;3.05;;;;;;;;;;5070268;28;20480;-80
2021/07/21 05:47:53;;;;;;;7.07;2.78;;;;;;;;;;5071079;28;20060;-80
2021/07/21 05:50:19;;;;;;;4.85;2.67;;;;;;;;;;5071366;28;20060;-80
2021/07/21 05:52:45;;;;;;;7.43;3.20;;;;;;;;;;5070957;28;20086;-80
2021/07/21 05:55:13;;;;;;;7.50;2.95;;;;;;;;;;5071099;28;20088;-79
2021/07/21 05:57:44;;;;;;;4.20;2.67;;;;;;;;;;5070861;28;20052;-80
2021/07/21 06:00:11;;;;;;;4.47;2.35;;;;;;;;;;5071005;28;20086;-81
2021/07/21 06:02:39;;;;;;;5.50;2.65;;;;;;;;;;5071059;28;20053;-79
2021/07/21 06:05:06;;;;;;;4.60;2.65;;;;;;;;;;5070740;28;20056;-79
2021/07/21 06:07:32;;;;;;;4.88;2.92;;;;;;;;;;5070859;28;20135;-79
2021/07/21 06:09:59;;;;;;;4.47;3.33;;;;;;;;;;5070779;28;20079;-77
2021/07/21 06:12:26;;;;;;;4.25;2.78;;;;;;;;;;5070950;28;20048;-80
2021/07/21 06:14:52;;;;;;;4.68;2.22;;;;;;;;;;5070970;28;20057;-81
2021/07/21 06:17:19;;;;;;;5.65;3.13;;;;;;;;;;5071092;28;20101;-80
2021/07/21 06:19:47;;;;;;;5.07;2.45;;;;;;;;;;5070763;28;20495;-80
2021/07/21 06:22:18;;;;;;;4.50;3.00;;;;;;;;;;5070688;28;20048;-79
2021/07/21 06:24:44;;;;;;;18.02;2.75;;;;;;;;;;5070579;28;20041;-83
2021/07/21 06:27:11;;;;;;;7.43;3.33;;;;;;;;;;5070896;28;20048;-80
2021/07/21 06:29:37;;;;;;;3.42;2.45;;;;;;;;;;5070740;28;20926;-78
2021/07/21 06:32:04;;;;;;;4.57;2.78;;;;;;;;;;5070518;28;20044;-80
2021/07/21 06:34:30;;;;;;;5.28;3.08;;;;;;;;;;5070564;28;20056;-80
2021/07/21 06:36:58;;;;;;;6.05;3.45;;;;;;;;;;5070594;28;20052;-79
2021/07/21 06:39:25;;;;;;;5.53;3.17;;;;;;;;;;5070483;28;20048;-79
2021/07/21 06:41:51;;;;;;;3.78;1.92;;;;;;;;;;5070969;28;20485;-79
2021/07/21 06:44:18;;;;;;;5.38;2.65;;;;;;;;;;5070711;28;20114;-80
2021/07/21 06:46:44;;;;;;;4.95;1.98;;;;;;;;;;5070565;28;20044;-80
2021/07/21 06:49:11;;;;;;;3.90;2.97;;;;;;;;;;5070414;28;20484;-79
2021/07/21 06:51:37;;;;;;;4.45;2.67;;;;;;;;;;5070950;28;20049;-79
2021/07/21 06:54:05;;;;;;;5.80;1.63;;;;;;;;;;5070496;28;20054;-80
2021/07/21 06:56:32;;;;;;;4.55;2.10;;;;;;;;;;5071143;28;20121;-80
2021/07/21 06:58:58;;;;;;;4.43;2.95;;;;;;;;;;5074766;28;20428;-80
2021/07/21 07:01:26;;;;;;;4.53;2.33;;;;;;;;;;5074290;28;20515;-82
2021/07/21 07:03:53;;;;;;;3.58;1.83;;;;;;;;;;5074362;28;20417;-80
2021/07/21 07:06:19;;;;;;;3.25;1.80;;;;;;;;;;5074144;28;20052;-79
2021/07/21 07:08:46;;;;;;;5.68;2.85;;;;;;;;;;5074454;28;20048;-80
2021/07/21 07:11:14;;;;;;;4.35;2.65;;;;;;;;;;5074491;28;20048;-79
2021/07/21 07:13:41;;;;;;;3.05;1.80;;;;;;;;;;5074102;28;20044;-79
2021/07/21 07:16:07;;;;;;;5.65;2.10;;;;;;;;;;5073897;28;20509;-80
2021/07/21 07:18:34;;;;;;;3.53;2.10;;;;;;;;;;5073998;28;20053;-80
2021/07/21 07:21:00;;;;;;;4.60;2.33;;;;;;;;;;5073773;28;20052;-78
2021/07/21 07:23:27;;;;;;;2.45;1.45;;;;;;;;;;5074083;28;20052;-79
2021/07/21 07:25:54;;;;;;;4.20;2.30;;;;;;;;;;5071573;28;20094;-79
2021/07/21 07:28:22;;;;;;;3.72;2.55;;;;;;;;;;5074097;28;20076;-79
2021/07/21 07:30:48;;;;;;;2.53;1.05;;;;;;;;;;5073850;28;20048;-77
2021/07/21 07:33:15;;;;;;;3.13;1.85;;;;;;;;;;5073622;28;20557;-78
2021/07/21 07:35:41;;;;;;;2.38;1.23;;;;;;;;;;5073522;28;20048;-79
2021/07/21 07:38:11;;;;;;;3.88;2.30;;;;;;;;;;5073711;28;20052;-79
2021/07/21 07:40:37;;;;;;;4.50;1.52;;;;;;;;;;5073526;28;20077;-78
2021/07/21 07:43:04;;;;;;;5.90;1.83;;;;;;;;;;5072994;28;20056;-79
2021/07/21 07:45:32;;;;;;;2.72;1.52;;;;;;;;;;5073255;28;20053;-80
2021/07/21 07:47:58;;;;;;;2.72;1.67;;;;;;;;;;5073407;28;20045;-78
2021/07/21 07:50:25;;;;;;;3.45;1.27;;;;;;;;;;5073630;28;20051;-77
2021/07/21 07:52:51;;;;;;;4.53;1.83;;;;;;;;;;5073505;28;20393;-78
2021/07/21 07:55:18;;;;;;;2.92;1.52;;;;;;;;;;5073456;28;20052;-78
2021/07/21 07:57:45;;;;;;;2.83;1.83;;;;;;;;;;5073250;28;20051;-83
2021/07/21 08:00:12;;;;;;;2.65;1.67;;;;;;;;;;5073178;28;20044;-84
2021/07/21 08:02:40;;;;;;;5.07;1.20;;;;;;;;;;5073084;28;20057;-77
2021/07/21 08:05:07;;;;;;;3.30;1.13;;;;;;;;;;5073421;28;20045;-77
2021/07/21 08:07:35;;;;;;;3.22;1.40;;;;;;;;;;5073109;28;20105;-79
2021/07/21 08:10:02;;;;;;;4.25;1.98;;;;;;;;;;5072277;28;20075;-78
2021/07/21 08:12:29;;;;;;;2.25;1.00;;;;;;;;;;5073504;28;20438;-79
2021/07/21 08:14:55;;;;;;;2.83;1.45;;;;;;;;;;5072946;28;20090;-77
2021/07/21 08:17:22;;;;;;;3.38;1.35;;;;;;;;;;5072912;28;20048;-77
2021/07/21 08:19:50;;;;;;;4.38;1.90;;;;;;;;;;5072787;28;20086;-78
2021/07/21 08:22:17;;;;;;;4.20;1.50;;;;;;;;;;5072937;28;20044;-78
2021/07/21 08:24:43;;;;;;;4.18;1.85;;;;;;;;;;5072768;28;20045;-78
2021/07/21 08:27:10;;;;;;;4.07;1.88;;;;;;;;;;5072707;28;20052;-78
2021/07/21 08:29:37;;;;;;;3.22;1.88;;;;;;;;;;5072766;28;20484;-76
2021/07/21 08:32:03;;;;;;;4.05;1.63;;;;;;;;;;5072570;28;20166;-78
2021/07/21 08:34:30;;;;;;;3.22;1.50;;;;;;;;;;5072717;28;20049;-77
2021/07/21 08:36:58;;;;;;;2.78;1.50;;;;;;;;;;5072582;28;20044;-79
2021/07/21 08:39:25;;;;;;;2.97;1.75;;;;;;;;;;5072421;28;20053;-77
2021/07/21 08:41:51;;;;;;;2.90;1.23;;;;;;;;;;5072502;28;20060;-78
2021/07/21 08:44:18;;;;;;;2.92;1.98;;;;;;;;;;5072326;28;20055;-76
2021/07/21 08:46:45;;;;;;;3.33;2.03;;;;;;;;;;5072505;28;20094;-76
2021/07/21 08:49:12;;;;;;;2.15;1.67;;;;;;;;;;5072508;28;20561;-80
2021/07/21 08:51:38;;;;;;;3.45;2.08;;;;;;;;;;5072408;28;20049;-78
2021/07/21 08:54:08;;;;;;;2.75;1.63;;;;;;;;;;5072081;28;20416;-77
2021/07/21 08:56:35;;;;;;;3.58;1.45;;;;;;;;;;5072106;28;20053;-78
2021/07/21 08:59:01;;;;;;;4.43;1.83;;;;;;;;;;5071981;28;20063;-79
2021/07/21 09:01:28;;;;;;;3.42;1.80;;;;;;;;;;5072146;28;20052;-78
2021/07/21 09:03:54;;;;;;;4.18;1.63;;;;;;;;;;5072025;28;20044;-79
2021/07/21 09:06:21;;;;;;;3.78;1.75;;;;;;;;;;5072088;28;20048;-77
2021/07/21 09:08:47;;;;;;;4.18;2.00;;;;;;;;;;5071968;28;20044;-79
2021/07/21 09:11:15;;;;;;;3.53;1.98;;;;;;;;;;5071806;28;20052;-80
2021/07/21 09:13:42;;;;;;;2.80;1.15;;;;;;;;;;5071734;28;20657;-83
2021/07/21 09:16:08;;;;;;;3.83;1.75;;;;;;;;;;5071682;28;20489;-79
2021/07/21 09:18:46;;;;;;;4.10;2.38;;;;;;;;;;5071817;28;20442;-77
2021/07/21 09:21:15;;;;;;;4.38;1.52;;;;;;;;;;5071546;28;20493;-78
2021/07/21 09:23:42;;;;;;;2.63;1.48;;;;;;;;;;5071605;28;20060;-78
2021/07/21 09:26:09;;;;;;;5.60;1.98;;;;;;;;;;5071491;28;20048;-79
2021/07/21 09:28:38;;;;;;;3.05;1.42;;;;;;;;;;5071545;28;20048;-78
2021/07/21 09:31:05;;;;;;;3.08;1.88;;;;;;;;;;5071437;28;20053;-78
2021/07/21 09:33:31;;;;;;;2.92;1.30;;;;;;;;;;5071522;28;20052;-77
2021/07/21 09:35:58;;;;;;;4.05;1.83;;;;;;;;;;5071354;28;20052;-79
2021/07/21 09:38:26;;;;;;;3.72;1.45;;;;;;;;;;5071275;28;20131;-79
2021/07/21 09:40:53;;;;;;;3.58;1.20;;;;;;;;;;5071373;28;20065;-81
2021/07/21 09:43:21;;;;;;;4.00;1.92;;;;;;;;;;5071179;28;20056;-78
2021/07/21 09:45:49;;;;;;;3.33;1.33;;;;;;;;;;5070744;28;20051;-79
2021/07/21 09:48:18;;;;;;;4.55;1.98;;;;;;;;;;5070490;28;20048;-79
2021/07/21 09:50:45;;;;;;;2.42;1.67;;;;;;;;;;5071190;28;20080;-78
2021/07/21 09:53:13;;;;;;;2.53;1.70;;;;;;;;;;5071018;28;20057;-77
2021/07/21 09:55:40;;;;;;;3.83;1.83;;;;;;;;;;5070923;28;20059;-78
2021/07/21 09:58:08;;;;;;;3.42;1.52;;;;;;;;;;5068140;28;20098;-79
2021/07/21 10:00:35;;;;;;;3.53;1.67;;;;;;;;;;5071065;28;20083;-78
2021/07/21 10:03:14;;;;;;;3.55;1.77;;;;;;;;;;5070812;28;20469;-79
2021/07/21 10:05:53;;;;;;;3.30;1.23;;;;;;;;;;5070818;28;20049;-78
2021/07/21 10:08:26;;;;;;;3.70;2.15;;;;;;;;;;5070979;28;20454;-78
2021/07/21 10:10:52;;;;;;;4.45;1.60;;;;;;;;;;5070927;28;20071;-78
2021/07/21 10:13:19;;;;;;;2.40;1.23;;;;;;;;;;5070760;28;20488;-78
2021/07/21 10:15:46;;;;;;;4.30;2.08;;;;;;;;;;5071243;28;20048;-79
2021/07/21 10:18:16;;;;;;;2.22;1.35;;;;;;;;;;5070436;28;20093;-77
2021/07/21 10:20:45;;;;;;;3.33;1.77;;;;;;;;;;5071045;28;20063;-79
2021/07/21 10:23:13;;;;;;;2.58;1.35;;;;;;;;;;5070888;28;20044;-77
2021/07/21 10:25:40;;;;;;;3.65;2.00;;;;;;;;;;5070865;28;20053;-79
2021/07/21 10:28:07;;;;;;;4.43;2.15;;;;;;;;;;5070422;28;20520;-79
2021/07/21 10:30:35;;;;;;;3.63;1.85;;;;;;;;;;5070585;28;20068;-79
2021/07/21 10:33:01;;;;;;;4.30;1.88;;;;;;;;;;5070288;28;20053;-78
2021/07/21 10:35:30;;;;;;;8.52;2.08;;;;;;;;;;5070700;28;20052;-78
2021/07/21 10:37:57;;;;;;;2.60;1.58;;;;;;;;;;5066892;28;20048;-84
2021/07/21 10:40:24;;;;;;;3.42;2.10;;;;;;;;;;5070132;28;20055;-78
2021/07/21 10:42:52;;;;;;;3.10;1.75;;;;;;;;;;5070613;28;20052;-79
2021/07/21 10:45:20;;;;;;;2.88;1.67;;;;;;;;;;5070385;28;20044;-78
2021/07/21 10:47:47;;;;;;;2.70;1.48;;;;;;;;;;5070344;28;20044;-78
2021/07/21 10:50:32;;;;;;;3.42;1.73;;;;;;;;;;5070596;28;20496;-78
2021/07/21 10:53:19;;;;;;;10.48;3.88;;;;;;;;;;5069117;28;20481;-80
2021/07/21 10:59:10;;;;;;;3.25;1.98;;;;;;;;;;5063382;28;20143;-80
2021/07/21 11:01:25;;;;;;;2.80;1.73;;;;;;;;;;5070314;28;20186;-79
2021/07/21 11:04:00;;;;;;;1.85;0.93;;;;;;;;;;5070268;28;20049;-82
2021/07/21 11:06:35;;;;;;;3.40;1.95;;;;;;;;;;5070339;28;20549;-79
2021/07/21 11:09:13;;;;;;;4.15;1.98;;;;;;;;;;5070557;28;20045;-78
2021/07/21 11:11:41;;;;;;;2.63;1.80;;;;;;;;;;5070771;28;20049;-83
2021/07/21 11:14:09;;;;;;;2.38;1.30;;;;;;;;;;5070307;28;20451;-79
2021/07/21 11:16:40;;;;;;;2.65;1.52;;;;;;;;;;5070282;28;20059;-77
2021/07/21 11:19:26;;;;;;;2.60;1.73;;;;;;;;;;5070124;28;20488;-76
2021/07/21 11:21:56;;;;;;;2.95;1.10;;;;;;;;;;5070064;28;20496;-78
2021/07/21 11:24:23;;;;;;;4.85;2.47;;;;;;;;;;5070078;28;20045;-77
2021/07/21 11:26:51;;;;;;;3.83;1.80;;;;;;;;;;5070039;28;20048;-78
2021/07/21 11:29:37;;;;;;;3.17;1.73;;;;;;;;;;5070069;28;20053;-81
2021/07/21 11:32:04;;;;;;;3.75;1.67;;;;;;;;;;5070098;28;20055;-78
2021/07/21 11:34:32;;;;;;;3.53;1.27;;;;;;;;;;5070217;28;20105;-77
2021/07/21 11:36:58;;;;;;;6.45;2.58;;;;;;;;;;5070071;28;20044;-79
2021/07/21 11:39:33;;;;;;;3.15;1.30;;;;;;;;;;5069826;28;20048;-79
2021/07/21 11:42:02;;;;;;;3.72;1.77;;;;;;;;;;5070149;28;20059;-78
2021/07/21 11:44:29;;;;;;;11.45;2.38;;;;;;;;;;5072112;28;20098;-79
2021/07/21 11:46:57;;;;;;;4.35;1.80;;;;;;;;;;5073566;28;20098;-77
2021/07/21 11:49:24;;;;;;;2.30;1.50;;;;;;;;;;5073449;28;20045;-82
2021/07/21 11:51:51;;;;;;;3.40;1.75;;;;;;;;;;5073215;28;20049;-78
2021/07/21 11:54:24;;;;;;;3.97;1.95;;;;;;;;;;5073520;28;20121;-79
2021/07/21 11:56:51;;;;;;;3.63;1.35;;;;;;;;;;5072570;28;20048;-80
2021/07/21 11:59:27;;;;;;;3.78;1.77;;;;;;;;;;5072791;28;20056;-78
2021/07/21 12:02:07;;;;;;;3.70;2.03;;;;;;;;;;5072630;28;20052;-79
2021/07/21 12:04:33;;;;;;;5.38;2.13;;;;;;;;;;5072431;28;20053;-79
2021/07/21 12:07:00;;;;;;;4.28;2.40;;;;;;;;;;5072311;28;20057;-79
2021/07/21 12:09:28;;;;;;;3.47;1.60;;;;;;;;;;5073191;28;20496;-81
2021/07/21 12:11:55;;;;;;;4.40;1.92;;;;;;;;;;5073107;28;20049;-82
2021/07/21 12:14:23;;;;;;;2.90;1.38;;;;;;;;;;5073138;28;20052;-76
2021/07/21 12:16:51;;;;;;;4.63;1.90;;;;;;;;;;5072677;28;20575;-80
2021/07/21 12:19:17;;;;;;;3.13;1.95;;;;;;;;;;5073160;28;20048;-80
2021/07/21 12:21:44;;;;;;;2.92;1.73;;;;;;;;;;5073132;28;20408;-79
2021/07/21 12:24:14;;;;;;;2.30;1.20;;;;;;;;;;5073254;28;20052;-78
2021/07/21 12:26:41;;;;;;;2.67;1.52;;;;;;;;;;5073133;28;20496;-82
2021/07/21 12:29:08;;;;;;;3.40;1.50;;;;;;;;;;5072647;28;20052;-82
2021/07/21 12:31:34;;;;;;;4.70;2.72;;;;;;;;;;5072568;28;20048;-79
2021/07/21 12:34:12;;;;;;;2.58;1.60;;;;;;;;;;5072650;28;20059;-79
2021/07/21 12:36:41;;;;;;;3.47;1.70;;;;;;;;;;5072606;28;20412;-79
2021/07/21 12:39:08;;;;;;;3.70;1.55;;;;;;;;;;5072595;28;20048;-79
2021/07/21 12:41:35;;;;;;;3.67;1.90;;;;;;;;;;5072445;28;20060;-78
2021/07/21 12:44:12;;;;;;;3.53;1.83;;;;;;;;;;5072432;28;20048;-79
2021/07/21 12:46:38;;;;;;;2.33;1.25;;;;;;;;;;5072090;28;20045;-78
2021/07/21 12:49:05;;;;;;;6.32;1.60;;;;;;;;;;5072347;28;21707;-79
2021/07/21 12:51:34;;;;;;;2.70;1.95;;;;;;;;;;5072387;28;20059;-79
2021/07/21 12:54:01;;;;;;;2.72;1.65;;;;;;;;;;5072121;28;20135;-81
2021/07/21 12:56:27;;;;;;;5.82;2.55;;;;;;;;;;5071947;28;20094;-77
2021/07/21 12:59:05;;;;;;;2.75;1.60;;;;;;;;;;5072425;28;20052;-78
2021/07/21 13:01:31;;;;;;;3.45;1.85;;;;;;;;;;5072329;28;20045;-77
2021/07/21 13:03:58;;;;;;;2.88;1.77;;;;;;;;;;5072023;28;20048;-79
2021/07/21 13:06:25;;;;;;;3.05;1.73;;;;;;;;;;5072024;28;20048;-78
2021/07/21 13:08:53;;;;;;;4.00;1.45;;;;;;;;;;5071201;28;20086;-80
2021/07/21 13:11:20;;;;;;;3.70;1.38;;;;;;;;;;5072264;28;20135;-84
2021/07/21 13:13:53;;;;;;;2.55;1.55;;;;;;;;;;5072041;28;20142;-78
2021/07/21 13:16:22;;;;;;;4.05;2.00;;;;;;;;;;5071806;28;20052;-79
2021/07/21 13:18:49;;;;;;;3.17;1.25;;;;;;;;;;5071818;28;20478;-78
2021/07/21 13:21:20;;;;;;;2.67;1.50;;;;;;;;;;5071603;28;20126;-78
2021/07/21 13:23:47;;;;;;;2.08;1.17;;;;;;;;;;5071871;28;20121;-79
2021/07/21 13:26:15;;;;;;;1.70;1.08;;;;;;;;;;5071581;28;20044;-80
2021/07/21 13:28:45;;;;;;;9.25;2.55;;;;;;;;;;5071463;28;20048;-79
2021/07/21 13:31:13;;;;;;;3.10;1.35;;;;;;;;;;5071632;28;20049;-77
2021/07/21 13:33:40;;;;;;;3.17;1.70;;;;;;;;;;5071377;28;20546;-80
2021/07/21 13:36:07;;;;;;;2.13;1.10;;;;;;;;;;5071438;28;20053;-80
2021/07/21 13:38:34;;;;;;;3.75;1.45;;;;;;;;;;5071527;28;20059;-79
2021/07/21 13:41:04;;;;;;;3.20;1.98;;;;;;;;;;5071528;28;20052;-78
2021/07/21 13:43:33;;;;;;;3.20;1.70;;;;;;;;;;5071405;28;20056;-77
2021/07/21 13:46:00;;;;;;;3.33;1.52;;;;;;;;;;5071235;28;20109;-80
2021/07/21 13:48:31;;;;;;;2.42;1.52;;;;;;;;;;5071071;28;20436;-77
2021/07/21 13:51:11;;;;;;;3.08;1.15;;;;;;;;;;5071318;28;20055;-81
2021/07/21 13:53:37;;;;;;;2.58;1.25;;;;;;;;;;5070943;28;20056;-79
2021/07/21 13:56:04;;;;;;;2.40;1.70;;;;;;;;;;5071269;28;20052;-79
2021/07/21 13:58:30;;;;;;;4.13;2.17;;;;;;;;;;5071028;28;20048;-78
2021/07/21 14:00:58;;;;;;;3.17;1.77;;;;;;;;;;5070887;28;20052;-78
2021/07/21 14:03:25;;;;;;;2.40;1.10;;;;;;;;;;5070946;28;20053;-78
2021/07/21 14:05:52;;;;;;;3.53;1.85;;;;;;;;;;5070448;28;20040;-78
2021/07/21 14:08:18;;;;;;;2.67;1.77;;;;;;;;;;5070786;28;20098;-77
2021/07/21 14:10:45;;;;;;;2.65;1.35;;;;;;;;;;5070981;28;20431;-76
2021/07/21 14:13:11;;;;;;;2.63;1.60;;;;;;;;;;5070914;28;20523;-81
2021/07/21 14:15:39;;;;;;;3.60;1.33;;;;;;;;;;5070412;28;20056;-77
2021/07/21 14:18:07;;;;;;;2.22;1.63;;;;;;;;;;5070425;28;20462;-78
2021/07/21 14:20:34;;;;;;;3.75;1.70;;;;;;;;;;5068761;28;20071;-76
2021/07/21 14:23:00;;;;;;;2.42;1.23;;;;;;;;;;5070102;28;20053;-87
2021/07/21 14:25:27;;;;;;;2.97;1.70;;;;;;;;;;5068979;28;20053;-80
2021/07/21 14:27:53;;;;;;;6.15;1.45;;;;;;;;;;5070291;28;20037;-82
2021/07/21 14:30:20;;;;;;;2.08;1.13;;;;;;;;;;5070923;28;20106;-78
2021/07/21 14:32:46;;;;;;;2.10;1.42;;;;;;;;;;5070555;28;20044;-78
2021/07/21 14:35:15;;;;;;;4.32;1.98;;;;;;;;;;5070933;28;20049;-80
2021/07/21 14:37:41;;;;;;;3.85;1.25;;;;;;;;;;5069798;28;20052;-78
2021/07/21 14:40:09;;;;;;;4.45;3.05;;;;;;;;;;5070794;28;20044;-77
2021/07/21 14:42:35;;;;;;;3.40;1.55;;;;;;;;;;5070353;28;20515;-78
2021/07/21 14:45:01;;;;;;;2.17;1.25;;;;;;;;;;5070872;28;20129;-79
2021/07/21 14:47:29;;;;;;;2.33;1.40;;;;;;;;;;5070749;28;20048;-78
2021/07/21 14:49:55;;;;;;;2.75;1.63;;;;;;;;;;5070616;28;20056;-79
2021/07/21 14:52:23;;;;;;;2.90;1.30;;;;;;;;;;5070390;28;20056;-78
2021/07/21 14:54:50;;;;;;;3.15;1.55;;;;;;;;;;5070327;28;20056;-78
2021/07/21 14:57:16;;;;;;;2.53;1.70;;;;;;;;;;5070258;28;20071;-78
2021/07/21 14:59:43;;;;;;;3.33;1.55;;;;;;;;;;5070666;28;20412;-77
2021/07/21 15:02:11;;;;;;;6.32;1.88;;;;;;;;;;5070627;28;20094;-79
2021/07/21 15:04:37;;;;;;;1.88;1.30;;;;;;;;;;5070255;28;20060;-78
2021/07/21 15:07:04;;;;;;;3.92;2.72;;;;;;;;;;5070149;28;20048;-80
2021/07/21 15:09:32;;;;;;;3.33;1.15;;;;;;;;;;5070130;28;20063;-78
2021/07/21 15:11:58;;;;;;;2.40;1.30;;;;;;;;;;5069935;28;20055;-78
2021/07/21 15:14:25;;;;;;;3.33;2.30;;;;;;;;;;5070212;28;20044;-78
2021/07/21 15:16:51;;;;;;;2.38;1.33;;;;;;;;;;5069889;28;20063;-77
2021/07/21 15:19:18;;;;;;;1.77;1.27;;;;;;;;;;5073629;28;20048;-78
2021/07/21 15:21:44;;;;;;;1.88;1.15;;;;;;;;;;5073912;28;20098;-78
2021/07/21 15:24:11;;;;;;;3.53;1.58;;;;;;;;;;5073740;28;20052;-79
2021/07/21 15:26:40;;;;;;;2.28;1.05;;;;;;;;;;5073848;28;20059;-77
2021/07/21 15:29:06;;;;;;;2.85;1.65;;;;;;;;;;5073813;28;20045;-78
2021/07/21 15:31:33;;;;;;;4.75;1.10;;;;;;;;;;5073830;28;20075;-79
2021/07/21 15:34:00;;;;;;;2.70;1.38;;;;;;;;;;5073748;28;20087;-81
2021/07/21 15:36:26;;;;;;;2.90;1.52;;;;;;;;;;5073438;28;20561;-77
2021/07/21 15:38:54;;;;;;;1.75;0.90;;;;;;;;;;5073310;28;20135;-77
2021/07/21 15:41:20;;;;;;;2.33;1.17;;;;;;;;;;5073417;28;20086;-78
2021/07/21 15:43:49;;;;;;;2.60;2.08;;;;;;;;;;5073600;28;20446;-77
2021/07/21 15:46:15;;;;;;;3.08;1.60;;;;;;;;;;5073438;28;20098;-79
2021/07/21 15:48:42;;;;;;;4.28;1.00;;;;;;;;;;5073364;28;20094;-78
2021/07/21 15:51:08;;;;;;;2.70;1.38;;;;;;;;;;5073320;28;20053;-77
2021/07/21 15:53:35;;;;;;;2.92;1.35;;;;;;;;;;5073183;28;20396;-78
2021/07/21 15:56:01;;;;;;;4.78;1.15;;;;;;;;;;5073454;28;20049;-78
2021/07/21 15:58:28;;;;;;;3.10;1.30;;;;;;;;;;5073282;28;20423;-77
2021/07/21 16:00:56;;;;;;;1.40;0.85;;;;;;;;;;5073274;28;20090;-77
2021/07/21 16:03:22;;;;;;;3.78;1.13;;;;;;;;;;5073109;28;20052;-76
2021/07/21 16:05:51;;;;;;;3.28;1.20;;;;;;;;;;5073026;28;20079;-78
2021/07/21 16:08:17;;;;;;;4.70;1.83;;;;;;;;;;5073002;28;20041;-78
2021/07/21 16:10:45;;;;;;;1.60;1.15;;;;;;;;;;5073049;28;20044;-81
2021/07/21 16:13:12;;;;;;;2.70;1.50;;;;;;;;;;5072913;28;20579;-78